Pagrindinis puslapis
METAR-TAF:

METAR-TAF

Oro uostai :

Rovaniemis, Suomija

platuma: 66-34N, ilguma: 025-50E, Aukštis: 197 m

Dabartinis oras

Ataskaita buvo paskelbta 39 minutes, ne 05:20 UTC
Vėjas 11 kt iš Rytų/Šiaurės Rytų
Temperatūra -4°C
Drėgmė 100%
Slėgis 969 hPa
Matomumas: 3000 m
Išsisklaidę debesys ne aukštis 500 ft
Apsiniaukę ne aukštis 2500 ft
sniegas

METAR: EFRO 300520Z 07011KT 3000 -SN SCT005 OVC025 M04/M04 Q0969 RESN

Laikas: 07:59 (05:59 UTC)

Prognozė

Ataskaita buvo paskelbta 1 valandą ir 40 minutes, ne 04:19 UTC
Prognozė galioja nuo 30 metu 04 UTC su 31 metu 03 UTC
Vėjas 10 kt iš Rytų
Matomumas: 3000 m
Su prošvaistėmis ne aukštis 300 ft
sniegas
Laikinai
nuo 30 metu 04 UTC su 30 metu 09 UTC
Matomumas: 1500 m
Su prošvaistėmis ne aukštis 500 ft
sniegas
Tapsmas
nuo 30 metu 15 UTC su 30 metu 17 UTC
Vėjas 10 kt iš Šiaurės/Šiaurės Rytų su gūsio iki 20 kt
Matomumas: 7000 m
Su prošvaistėmis ne aukštis 500 ft

TAF: EFRO 300419Z 3004/3103 08010KT 3000 -SN BKN003 TEMPO 3004/3009 1500 SN BKN005 BECMG 3015/3017 02010G20KT 7000 BKN005

Orai ataskaitas ir orų prognozės (METAR, TAF).

turimą stotys yra geltonos ir raudonos taškus žemėlapyje.

Perkelti pele per norėdami pamatyti stoties vardą.

Tada spustelėkite, norėdami matyti oro stebėjimo ir prognozės.

Norėdami pakeisti žemėlapį: spustelėkite ant žalios mygtukų su juodo kryžiaus žemyn,; žalią mygtuką su brūkšneliu, jei norite nutolinti; arba žalių rodyklių gretimoms žemėlapius.


METAR-TAF: